Time;durP1;ratioP1;P1;durP2;ratioP2;P2;SDS_P1;SDS_P2;PMS_P1;PMS_P2;Temp;Humidity;BMP_temperature;BMP_pressure;BME280_temperature;BME280_humidity;BME280_pressure;Samples;Min_cycle;Max_cycle;Signal;HPM_P1;HPM_P2
2022/06/03 00:00:59;;;;;;;1.50;1.40;;;;;;;13.36;72.03;100902.31;5074382;28;20119;-75
2022/06/03 00:03:44;;;;;;;1.40;1.30;;;;;;;13.35;72.37;100903.41;5077504;28;20044;-74
2022/06/03 00:06:13;;;;;;;1.52;1.42;;;;;;;13.31;72.33;100897.69;5071767;28;20067;-74
2022/06/03 00:08:51;;;;;;;;;;;;;;;13.30;72.40;100907.06;5079054;28;20078;-75
2022/06/03 00:11:55;;;;;;;1.63;1.52;;;;;;;13.26;72.83;100925.31;5072507;28;19943;-74
2022/06/03 00:14:52;;;;;;;1.27;1.17;;;;;;;13.24;72.88;100917.34;5075609;28;20035;-74
2022/06/03 00:17:40;;;;;;;1.35;1.25;;;;;;;13.24;72.33;100916.50;5071390;28;20608;-75
2022/06/03 00:20:12;;;;;;;2.75;1.40;;;;;;;13.19;72.89;100920.16;5076003;28;20395;-74
2022/06/03 00:23:15;;;;;;;1.38;1.27;;;;;;;13.10;73.44;100923.78;5088618;28;20050;-74
2022/06/03 00:25:43;;;;;;;1.35;1.25;;;;;;;13.03;73.41;100923.31;5080177;28;20545;-74
2022/06/03 00:28:12;;;;;;;1.67;1.58;;;;;;;13.01;74.01;100914.50;5088029;28;20464;-74
2022/06/03 00:30:43;;;;;;;1.98;1.27;;;;;;;12.96;73.81;100901.59;5076604;28;20142;-74
2022/06/03 00:33:34;;;;;;;4.20;1.42;;;;;;;12.96;73.44;100909.88;5081275;28;20044;-74
2022/06/03 00:36:23;;;;;;;1.58;1.38;;;;;;;12.99;73.81;100907.34;5075617;28;20043;-74
2022/06/03 00:39:05;;;;;;;1.55;1.40;;;;;;;12.92;74.60;100909.63;5081269;28;20032;-74
2022/06/03 00:41:35;;;;;;;1.05;1.05;;;;;;;12.90;74.29;100908.28;5079876;28;20048;-74
2022/06/03 00:44:15;;;;;;;2.83;1.58;;;;;;;12.86;74.64;100930.09;5060407;28;20040;-74
2022/06/03 00:47:03;;;;;;;2.60;1.20;;;;;;;12.91;74.48;100932.78;5072991;28;20037;-74
2022/06/03 00:49:45;;;;;;;1.52;1.42;;;;;;;12.93;74.16;100919.53;5083812;28;20043;-74
2022/06/03 00:52:15;;;;;;;1.50;1.40;;;;;;;12.88;75.20;100897.56;5083032;28;20490;-74
2022/06/03 00:54:55;;;;;;;1.48;1.38;;;;;;;12.80;75.46;100891.84;5075235;28;20040;-74
2022/06/03 00:57:24;;;;;;;2.47;1.70;;;;;;;12.74;74.87;100901.28;5082252;28;20418;-74
2022/06/03 01:00:04;;;;;;;1.70;1.60;;;;;;;12.72;75.03;100901.56;5071134;28;20051;-74
2022/06/03 01:03:04;;;;;;;2.65;1.45;;;;;;;12.68;75.18;100906.84;5073151;28;20102;-74
2022/06/03 01:05:51;;;;;;;1.55;1.45;;;;;;;12.63;75.56;100909.59;5081422;28;20040;-74
2022/06/03 01:08:32;;;;;;;1.52;1.42;;;;;;;12.63;76.24;100914.28;5076174;28;20094;-75
2022/06/03 01:11:09;;;;;;;2.30;1.40;;;;;;;12.58;75.94;100908.84;5085674;28;20032;-74
2022/06/03 01:13:59;;;;;;;1.77;1.63;;;;;;;12.58;76.25;100906.09;5090725;28;20134;-74
2022/06/03 01:16:45;;;;;;;2.08;1.70;;;;;;;12.57;75.83;100902.50;5080366;28;20101;-74
2022/06/03 01:19:28;;;;;;;2.72;1.63;;;;;;;12.60;76.27;100903.88;5080478;28;20032;-74
2022/06/03 01:22:33;;;;;;;1.80;1.52;;;;;;;12.58;76.47;100906.09;5069263;28;20487;-74
2022/06/03 01:25:36;;;;;;;1.70;1.40;;;;;;;12.55;75.80;100899.22;5058692;28;20750;-74
2022/06/03 01:28:43;;;;;;;1.88;1.60;;;;;;;12.52;75.88;100897.06;5084908;28;20047;-74
2022/06/03 01:31:28;;;;;;;1.27;1.17;;;;;;;12.50;76.60;100893.78;5077121;28;20491;-74
2022/06/03 01:34:26;;;;;;;3.22;1.27;;;;;;;12.46;76.19;100889.09;5070449;28;20123;-74
2022/06/03 01:37:25;;;;;;;1.67;1.58;;;;;;;12.38;76.94;100879.56;5074346;28;20040;-75
2022/06/03 01:40:36;;;;;;;1.48;1.38;;;;;;;12.35;77.04;100880.13;5078185;28;20565;-75
2022/06/03 01:43:14;;;;;;;2.20;1.63;;;;;;;12.29;76.59;100868.31;5070873;28;20146;-74
2022/06/03 01:45:40;;;;;;;4.28;1.70;;;;;;;12.28;76.35;100869.44;5085764;28;20093;-74
2022/06/03 01:48:35;;;;;;;1.50;1.33;;;;;;;12.32;76.87;100873.28;5099254;28;20127;-74
2022/06/03 01:51:22;;;;;;;1.38;1.27;;;;;;;12.35;76.07;100874.63;5070632;28;20089;-74
2022/06/03 01:54:25;;;;;;;1.42;1.33;;;;;;;12.35;76.26;100877.38;5076291;28;20183;-74
2022/06/03 01:57:09;;;;;;;2.33;1.60;;;;;;;12.37;76.88;100884.25;5094057;28;20039;-74
2022/06/03 02:00:23;;;;;;;1.70;1.42;;;;;;;12.37;75.93;100887.00;5076025;28;20064;-74
2022/06/03 02:02:55;;;;;;;1.50;1.40;;;;;;;12.32;75.83;100898.03;5076851;28;20069;-74
2022/06/03 02:05:25;;;;;;;1.55;1.40;;;;;;;12.32;75.36;100899.94;5077891;28;20534;-74
2022/06/03 02:08:02;;;;;;;1.65;1.55;;;;;;;12.30;75.14;100902.97;5084696;28;20052;-74
2022/06/03 02:11:02;;;;;;;1.60;1.50;;;;;;;12.33;75.63;100910.69;5088055;28;20418;-74
2022/06/03 02:13:49;;;;;;;1.40;1.30;;;;;;;12.35;75.26;100899.41;5073911;28;20044;-74
2022/06/03 02:16:49;;;;;;;1.50;1.40;;;;;;;12.40;74.83;100898.53;5091282;28;20046;-74
2022/06/03 02:19:21;;;;;;;1.23;1.10;;;;;;;12.41;74.37;100895.47;5072492;28;20037;-74
2022/06/03 02:22:13;;;;;;;1.45;1.35;;;;;;;12.39;75.06;100894.97;5074575;28;20055;-74
2022/06/03 02:24:42;;;;;;;2.20;1.38;;;;;;;12.39;74.37;100892.19;5060003;28;20451;-74
2022/06/03 02:27:23;;;;;;;1.42;1.33;;;;;;;12.37;74.15;100889.75;5080295;28;20123;-74
2022/06/03 02:33:11;;;;;;;1.60;1.30;;;;;;;12.34;74.13;100890.31;5072225;28;20036;-74
2022/06/03 02:35:58;;;;;;;1.05;1.00;;;;;;;12.37;73.86;100889.75;5090367;28;20210;-74
2022/06/03 02:38:58;;;;;;;1.20;1.10;;;;;;;12.43;74.00;100897.94;5091480;28;20036;-74
2022/06/03 02:41:29;;;;;;;1.58;1.42;;;;;;;12.59;73.13;100908.56;5082199;28;20040;-74
2022/06/03 02:44:24;;;;;;;1.67;1.20;;;;;;;12.76;72.42;100905.38;5074696;28;20097;-74
2022/06/03 02:47:06;;;;;;;3.28;1.20;;;;;;;12.85;71.98;100900.91;5072310;28;20127;-74
2022/06/03 02:50:00;;;;;;;2.65;1.38;;;;;;;12.93;71.17;100903.00;5074719;28;20037;-74
2022/06/03 02:52:59;;;;;;;1.38;1.27;;;;;;;12.95;72.21;100895.28;5072943;28;20086;-75
2022/06/03 02:55:46;;;;;;;3.60;1.15;;;;;;;13.03;71.54;100907.63;5079061;28;20511;-74
2022/06/03 02:58:21;;;;;;;1.33;1.23;;;;;;;13.08;70.69;100895.72;5080946;28;20048;-75
2022/06/03 03:01:05;;;;;;;1.38;1.27;;;;;;;13.11;70.26;100908.91;5084532;28;20042;-75
2022/06/03 03:03:52;;;;;;;1.27;1.17;;;;;;;13.07;69.43;100911.41;5083469;28;20128;-74
2022/06/03 03:06:33;;;;;;;2.00;1.17;;;;;;;13.05;69.81;100910.06;5091602;28;20064;-75
2022/06/03 03:09:22;;;;;;;1.58;1.10;;;;;;;13.01;69.13;100922.75;5073927;28;20041;-75
2022/06/03 03:12:03;;;;;;;2.08;1.20;;;;;;;13.04;68.99;100919.44;5093115;28;20044;-75
2022/06/03 03:14:54;;;;;;;1.70;1.20;;;;;;;13.01;69.40;100926.34;5092907;28;20035;-75
2022/06/03 03:17:43;;;;;;;2.58;1.33;;;;;;;13.05;69.55;100921.09;5081096;28;20090;-74
2022/06/03 03:20:25;;;;;;;1.58;1.15;;;;;;;13.07;68.70;100914.19;5062816;28;21841;-75
2022/06/03 03:23:06;;;;;;;2.03;1.30;;;;;;;13.06;69.81;100907.03;5071015;28;20602;-75
2022/06/03 03:25:38;;;;;;;2.10;1.70;;;;;;;13.09;69.85;100908.38;5086924;28;20572;-74
2022/06/03 03:28:19;;;;;;;1.42;1.30;;;;;;;13.03;69.16;100915.88;5090409;28;20036;-74
2022/06/03 03:31:12;;;;;;;2.38;1.60;;;;;;;12.89;69.64;100907.47;5092499;28;20071;-74
2022/06/03 03:33:43;;;;;;;1.80;1.50;;;;;;;12.81;70.34;100904.50;5086675;28;20662;-74
2022/06/03 03:36:27;;;;;;;1.73;1.60;;;;;;;12.89;70.08;100917.66;5070680;28;20047;-75
2022/06/03 03:39:34;;;;;;;1.88;1.17;;;;;;;13.06;70.01;100928.25;5075951;28;20131;-75
2022/06/03 03:42:24;;;;;;;1.10;1.05;;;;;;;13.38;70.44;100924.91;5074597;28;20036;-74
2022/06/03 03:45:01;;;;;;;2.25;1.48;;;;;;;13.71;69.23;100923.09;5092283;28;20044;-74
2022/06/03 03:48:04;;;;;;;1.63;1.40;;;;;;;13.96;68.48;100919.22;5104164;28;20090;-74
2022/06/03 03:50:36;;;;;;;1.50;1.38;;;;;;;14.17;67.91;100915.84;5072184;28;20090;-75
2022/06/03 03:53:29;;;;;;;1.75;1.17;;;;;;;14.37;66.70;100914.72;5070713;28;20037;-74
2022/06/03 03:56:19;;;;;;;1.13;1.02;;;;;;;14.51;66.68;100912.06;5071466;28;20135;-75
2022/06/03 03:59:00;;;;;;;1.27;1.17;;;;;;;14.54;65.71;100914.22;5090744;28;20545;-75
2022/06/03 04:01:50;;;;;;;2.42;1.10;;;;;;;14.50;65.60;100918.72;5091780;28;20050;-74
2022/06/03 04:04:38;;;;;;;1.02;0.93;;;;;;;14.50;65.15;100915.13;5090555;28;20126;-75
2022/06/03 04:07:20;;;;;;;0.80;0.80;;;;;;;14.53;64.79;100915.34;5071550;28;20549;-74
2022/06/03 04:10:18;;;;;;;1.08;0.90;;;;;;;14.60;64.44;100913.03;5087108;28;20119;-75
2022/06/03 04:13:20;;;;;;;0.80;0.77;;;;;;;14.75;63.40;100912.78;5053494;28;20044;-74
2022/06/03 04:15:56;;;;;;;2.15;1.10;;;;;;;14.83;63.37;100910.44;5073114;28;20044;-75
2022/06/03 04:18:42;;;;;;;1.48;1.08;;;;;;;15.22;62.65;100902.50;5070375;28;20033;-75
2022/06/03 04:21:29;;;;;;;1.52;1.20;;;;;;;15.57;62.06;100908.47;5069958;28;20032;-75
2022/06/03 04:24:07;;;;;;;1.40;1.30;;;;;;;15.60;61.57;100896.81;5070284;28;20048;-75
2022/06/03 04:26:42;;;;;;;1.85;1.20;;;;;;;15.67;60.98;100898.06;5071075;28;20036;-74
2022/06/03 04:29:39;;;;;;;1.58;1.27;;;;;;;15.97;60.77;100907.66;5074722;28;20040;-74
2022/06/03 04:32:04;;;;;;;2.78;1.20;;;;;;;16.14;59.52;100908.91;5069530;28;20040;-74
2022/06/03 04:35:01;;;;;;;5.47;1.70;;;;;;;15.97;59.83;100921.50;5071091;28;20042;-74
2022/06/03 04:37:33;;;;;;;2.03;1.40;;;;;;;15.89;59.32;100924.16;5069641;28;20526;-74
2022/06/03 04:40:17;;;;;;;2.38;1.40;;;;;;;15.95;59.47;100920.94;5071068;28;20131;-74
2022/06/03 04:43:03;;;;;;;1.30;1.10;;;;;;;15.83;59.27;100930.94;5053222;28;20119;-74
2022/06/03 04:46:00;;;;;;;1.10;1.00;;;;;;;15.82;59.29;100927.34;5053173;28;20074;-74
2022/06/03 04:49:01;;;;;;;3.33;1.05;;;;;;;15.68;59.39;100932.06;5070896;28;20043;-74
2022/06/03 04:52:04;;;;;;;1.05;0.93;;;;;;;15.67;59.51;100930.44;5070045;28;20491;-74
2022/06/03 04:54:45;;;;;;;1.35;1.17;;;;;;;15.85;59.49;100929.50;5070866;28;20045;-74
2022/06/03 04:57:49;;;;;;;1.02;0.95;;;;;;;16.26;58.88;100931.34;5071117;28;20033;-74
2022/06/03 05:00:25;;;;;;;2.90;1.02;;;;;;;16.47;58.13;100935.28;5070768;28;20044;-74
2022/06/03 05:03:18;;;;;;;1.27;1.17;;;;;;;16.89;57.43;100935.94;5070959;28;20037;-74
2022/06/03 05:06:15;;;;;;;1.83;0.88;;;;;;;17.28;55.76;100939.91;5070765;28;20032;-74
2022/06/03 05:09:20;;;;;;;1.02;0.93;;;;;;;17.66;55.42;100941.06;5070859;28;20041;-74
2022/06/03 05:12:21;;;;;;;1.27;1.17;;;;;;;17.94;53.68;100946.41;5069750;28;20495;-74
2022/06/03 05:15:02;;;;;;;0.95;0.88;;;;;;;17.69;54.16;100945.16;5076450;28;20085;-74
2022/06/03 05:17:30;;;;;;;0.90;0.85;;;;;;;18.10;54.40;100955.09;5089523;28;20036;-74
2022/06/03 05:20:05;;;;;;;1.02;0.77;;;;;;;18.71;52.36;100948.44;5073732;28;20047;-74
2022/06/03 05:22:58;;;;;;;1.75;1.13;;;;;;;18.65;52.08;100939.47;5070730;28;20071;-74
2022/06/03 05:25:51;;;;;;;1.98;1.00;;;;;;;18.64;52.40;100948.13;5070188;28;20538;-74
2022/06/03 05:28:21;;;;;;;1.35;1.00;;;;;;;18.43;52.77;100945.16;5056960;28;20048;-74
2022/06/03 05:31:08;;;;;;;0.98;0.93;;;;;;;18.46;52.49;100946.47;5074385;28;20040;-74
2022/06/03 05:33:39;;;;;;;0.98;0.88;;;;;;;18.52;52.38;100947.91;5081900;28;20040;-74
2022/06/03 05:36:29;;;;;;;1.13;1.02;;;;;;;18.79;52.29;100944.03;5092613;28;20032;-74
2022/06/03 05:39:21;;;;;;;1.58;0.70;;;;;;;19.09;51.25;100944.94;5093443;28;20051;-74
2022/06/03 05:45:04;;;;;;;0.95;0.80;;;;;;;19.14;50.82;100959.50;5094825;28;20044;-74
2022/06/03 05:47:41;;;;;;;1.15;1.05;;;;;;;19.09;50.84;100961.63;5094400;28;20119;-74
2022/06/03 05:50:12;;;;;;;0.90;0.90;;;;;;;19.14;50.56;100973.41;5093285;28;20442;-74
2022/06/03 05:52:51;;;;;;;1.13;1.05;;;;;;;19.42;50.15;100973.81;5093086;28;20093;-74
2022/06/03 05:55:23;;;;;;;1.52;1.00;;;;;;;19.54;49.60;100976.75;5088990;28;20419;-74
2022/06/03 05:58:16;;;;;;;1.25;0.98;;;;;;;19.51;50.16;100971.00;5088968;28;20531;-74
2022/06/03 06:00:54;;;;;;;1.00;0.90;;;;;;;19.23;49.84;100973.38;5094352;28;20643;-73
2022/06/03 06:03:39;;;;;;;1.20;1.10;;;;;;;18.85;50.70;100965.75;5092965;28;20525;-73
2022/06/03 06:06:18;;;;;;;0.90;0.90;;;;;;;18.57;51.09;100969.97;5094188;28;20047;-73
2022/06/03 06:09:14;;;;;;;1.60;1.25;;;;;;;18.32;51.85;100971.63;5092912;28;20468;-73
2022/06/03 06:11:52;;;;;;;1.92;1.05;;;;;;;18.14;52.62;100969.97;5075021;28;20040;-73
2022/06/03 06:14:33;;;;;;;1.73;1.10;;;;;;;18.08;53.17;100975.69;5076061;28;20036;-73
2022/06/03 06:17:10;;;;;;;2.40;0.98;;;;;;;17.97;52.95;100981.84;5076221;28;20119;-73
2022/06/03 06:19:42;;;;;;;1.60;1.02;;;;;;;17.76;53.32;100989.94;5072699;28;20044;-73
2022/06/03 06:22:30;;;;;;;0.90;0.90;;;;;;;17.71;53.48;100988.13;5073844;28;20040;-73
2022/06/03 06:24:58;;;;;;;1.10;1.00;;;;;;;17.66;53.99;100982.69;5072398;28;20123;-72
2022/06/03 06:27:30;;;;;;;;;;;;;;;17.48;53.82;100980.97;5057157;28;20032;-72
2022/06/03 06:30:14;;;;;;;1.10;1.00;;;;;;;17.29;54.80;100975.66;5073473;28;19961;-72
2022/06/03 06:32:56;;;;;;;1.42;0.93;;;;;;;17.34;54.85;100966.38;5073423;28;20056;-72
2022/06/03 06:35:40;;;;;;;1.65;1.10;;;;;;;17.36;54.84;100972.44;5074091;28;20098;-72
2022/06/03 06:38:14;;;;;;;1.90;1.05;;;;;;;17.30;55.16;100959.81;5072676;28;20114;-72
2022/06/03 06:41:09;;;;;;;5.22;1.20;;;;;;;17.19;55.12;100964.84;5088528;28;20132;-72
2022/06/03 06:43:50;;;;;;;1.58;1.42;;;;;;;17.07;55.35;100962.66;5080056;28;20055;-72
2022/06/03 06:46:34;;;;;;;1.95;0.90;;;;;;;17.21;55.17;100958.97;5086850;28;20032;-72
2022/06/03 06:49:18;;;;;;;1.00;1.00;;;;;;;17.59;54.53;100960.13;5081935;28;20044;-72
2022/06/03 06:51:52;;;;;;;0.75;0.75;;;;;;;18.10;54.08;100949.53;5076128;28;20086;-72
2022/06/03 06:54:45;;;;;;;2.15;1.10;;;;;;;18.62;52.21;100944.81;5076874;28;20060;-72
2022/06/03 06:57:31;;;;;;;0.90;0.90;;;;;;;19.15;51.02;100930.53;5079363;28;20119;-73
2022/06/03 07:00:05;;;;;;;3.08;1.10;;;;;;;19.42;49.79;100922.91;5087803;28;20130;-73
2022/06/03 07:02:50;;;;;;;1.35;1.08;;;;;;;19.48;50.25;100925.19;5080232;28;20423;-73
2022/06/03 07:05:27;;;;;;;9.05;2.15;;;;;;;19.85;49.32;100919.94;5059370;28;20063;-73
2022/06/03 07:08:06;;;;;;;3.30;1.15;;;;;;;20.08;49.10;100921.25;5081825;28;20127;-73
2022/06/03 07:10:52;;;;;;;1.63;1.20;;;;;;;20.24;48.93;100917.88;5073606;28;20190;-72
2022/06/03 07:13:30;;;;;;;2.38;1.08;;;;;;;20.40;48.07;100930.03;5085120;28;20048;-73
2022/06/03 07:16:09;;;;;;;0.90;0.90;;;;;;;20.63;48.12;100934.13;5086506;28;20044;-73
2022/06/03 07:22:00;;;;;;;3.58;1.10;;;;;;;20.48;47.21;100940.34;5073624;28;20094;-73
2022/06/03 07:24:47;;;;;;;0.88;0.88;;;;;;;20.11;47.99;100951.22;5071899;28;20522;-72
2022/06/03 07:27:23;;;;;;;1.92;1.20;;;;;;;19.86;48.51;100950.25;5055163;28;20572;-72
2022/06/03 07:29:55;;;;;;;1.30;1.20;;;;;;;19.55;49.28;100944.97;5056083;28;20605;-72
2022/06/03 07:32:25;;;;;;;1.10;1.05;;;;;;;19.34;49.65;100941.28;5070276;28;20502;-72
2022/06/03 07:34:53;;;;;;;11.27;2.20;;;;;;;18.98;49.79;100939.75;5077665;28;20119;-72
2022/06/03 07:37:30;;;;;;;1.23;1.10;;;;;;;18.76;51.07;100947.47;5075761;28;20125;-72
2022/06/03 07:40:06;;;;;;;2.30;0.95;;;;;;;18.92;51.38;100943.03;5076543;28;20036;-72
2022/06/03 07:42:43;;;;;;;1.45;1.05;;;;;;;19.21;50.52;100950.63;5083947;28;20499;-72
2022/06/03 07:45:26;;;;;;;1.38;1.10;;;;;;;19.27;50.32;100946.53;5083262;28;20074;-72
2022/06/03 07:47:58;;;;;;;1.25;1.15;;;;;;;19.40;49.78;100947.47;5078107;28;20506;-72
2022/06/03 07:50:24;;;;;;;1.15;1.05;;;;;;;19.32;49.67;100951.91;5085002;28;20127;-72
2022/06/03 07:53:17;;;;;;;2.08;1.10;;;;;;;19.08;50.04;100952.47;5088116;28;21372;-72
2022/06/03 07:55:43;;;;;;;1.83;1.20;;;;;;;18.89;50.84;100952.81;5073755;28;20045;-72
2022/06/03 07:58:17;;;;;;;0.93;0.93;;;;;;;18.84;50.47;100955.78;5082115;28;20052;-72
2022/06/03 08:00:46;;;;;;;2.15;1.23;;;;;;;18.80;51.53;100940.09;5082825;28;20583;-72
2022/06/03 08:03:16;;;;;;;1.13;1.02;;;;;;;18.71;51.36;100945.66;5085353;28;20052;-72
2022/06/03 08:05:49;;;;;;;1.90;1.13;;;;;;;18.77;51.71;100936.03;5082101;28;20122;-72
2022/06/03 08:11:06;;;;;;;1.40;1.17;;;;;;;18.92;51.40;100943.84;5070059;28;20036;-72
2022/06/03 08:13:34;;;;;;;1.30;1.20;;;;;;;19.38;51.16;100953.38;5070696;28;20048;-72
2022/06/03 08:16:01;;;;;;;;;;;;;;;19.72;50.13;100954.41;5085467;28;20036;-72
2022/06/03 08:18:33;;;;;;;1.25;1.15;;;;;;;19.97;49.06;100947.88;5072914;28;19920;-72
2022/06/03 08:21:07;;;;;;;1.20;1.10;;;;;;;20.24;48.49;100951.31;5087621;28;20040;-72
2022/06/03 08:23:34;;;;;;;4.03;1.35;;;;;;;20.42;47.21;100955.63;5087923;28;20040;-72
2022/06/03 08:26:05;;;;;;;1.23;1.13;;;;;;;20.32;47.85;100956.03;5077067;28;20043;-72
2022/06/03 08:28:34;;;;;;;1.45;1.20;;;;;;;20.17;48.00;100958.25;5086838;28;20502;-72
2022/06/03 08:31:02;;;;;;;1.50;1.40;;;;;;;19.83;48.41;100955.66;5072087;28;20041;-72
2022/06/03 08:33:49;;;;;;;1.42;1.10;;;;;;;19.70;49.17;100960.31;5073164;28;20067;-72
2022/06/03 08:36:19;;;;;;;1.38;1.20;;;;;;;19.81;48.96;100958.78;5055505;28;20044;-72
2022/06/03 08:39:02;;;;;;;1.35;1.02;;;;;;;20.12;48.32;100963.19;5073934;28;20032;-72
2022/06/03 08:41:40;;;;;;;1.67;1.13;;;;;;;20.31;47.68;100962.75;5077649;28;20036;-72
2022/06/03 08:44:18;;;;;;;1.20;1.10;;;;;;;20.52;47.93;100962.78;5077251;28;20032;-72
2022/06/03 08:47:02;;;;;;;2.50;1.25;;;;;;;20.54;47.83;100966.84;5077132;28;20601;-72
2022/06/03 08:49:43;;;;;;;3.15;1.38;;;;;;;20.59;47.54;100965.81;5071537;28;20537;-72
2022/06/03 08:52:10;;;;;;;1.27;1.17;;;;;;;20.49;47.00;100967.06;5073705;28;20067;-72
2022/06/03 08:54:39;;;;;;;1.40;1.30;;;;;;;20.38;47.61;100979.75;5086184;28;20460;-72
2022/06/03 08:57:08;;;;;;;1.33;1.23;;;;;;;20.38;47.28;100976.94;5086216;28;20047;-72
2022/06/03 08:59:40;;;;;;;2.35;1.50;;;;;;;20.60;46.75;100975.81;5068563;28;20048;-72
2022/06/03 09:02:13;;;;;;;1.98;1.00;;;;;;;20.53;47.14;100979.16;5044126;28;20036;-73
2022/06/03 09:04:47;;;;;;;1.15;1.05;;;;;;;20.77;47.06;100970.91;5081815;28;20052;-73
2022/06/03 09:07:34;;;;;;;1.75;1.20;;;;;;;20.82;46.47;100969.88;5073107;28;20119;-73
2022/06/03 09:10:06;;;;;;;2.75;1.50;;;;;;;20.45;47.01;100971.66;5063574;28;20040;-73
2022/06/03 09:12:32;;;;;;;1.65;1.30;;;;;;;20.34;46.96;100982.38;5072036;28;20051;-72
2022/06/03 09:15:10;;;;;;;1.40;1.30;;;;;;;20.14;48.03;100970.06;5082360;28;20032;-72
2022/06/03 09:17:40;;;;;;;1.67;1.10;;;;;;;20.21;47.63;100971.50;5080532;28;20104;-73
2022/06/03 09:20:12;;;;;;;1.42;1.33;;;;;;;20.13;47.08;100975.94;5078862;28;20043;-73
2022/06/03 09:22:38;;;;;;;1.40;1.30;;;;;;;19.97;47.93;100989.69;5074870;28;20049;-72
2022/06/03 09:25:06;;;;;;;1.70;1.45;;;;;;;19.72;47.89;100987.81;5082155;28;20419;-72
2022/06/03 09:27:33;;;;;;;2.30;1.40;;;;;;;19.53;48.56;100977.88;5072300;28;20044;-72
2022/06/03 09:30:02;;;;;;;3.35;1.27;;;;;;;19.37;49.47;100985.13;5081342;28;20044;-72
2022/06/03 09:32:28;;;;;;;1.83;1.35;;;;;;;19.13;50.15;100982.91;5077826;28;20047;-72
2022/06/03 09:35:01;;;;;;;2.53;1.42;;;;;;;18.78;50.75;100986.88;5059832;28;20093;-72
2022/06/03 09:37:35;;;;;;;1.63;1.27;;;;;;;18.62;51.74;100989.31;5071464;28;20118;-72
2022/06/03 09:40:03;;;;;;;3.55;1.70;;;;;;;18.52;52.30;100998.75;5080249;28;20039;-73
2022/06/03 09:42:31;;;;;;;1.95;1.35;;;;;;;18.37;53.20;100985.34;5068487;28;20123;-72
2022/06/03 09:45:00;;;;;;;3.50;1.77;;;;;;;18.24;53.99;100994.66;5077809;28;20047;-76
2022/06/03 09:47:26;;;;;;;3.85;2.15;;;;;;;18.15;54.12;100991.03;5073202;28;20109;-76
2022/06/03 09:49:52;;;;;;;3.15;2.25;;;;;;;18.02;54.62;100992.78;5069148;28;20032;-76
2022/06/03 09:52:24;;;;;;;5.18;1.98;;;;;;;17.95;55.05;101000.78;5034968;28;20044;-77
2022/06/03 09:54:50;;;;;;;2.03;1.77;;;;;;;17.84;55.06;101005.81;5080300;28;20119;-77
2022/06/03 09:57:28;;;;;;;2.03;1.60;;;;;;;17.83;55.68;101006.13;5082145;28;20127;-77
2022/06/03 10:00:35;;;;;;;1.60;1.50;;;;;;;17.87;54.95;101012.66;5062878;28;20032;-76
2022/06/03 10:03:00;;;;;;;2.58;1.65;;;;;;;17.93;55.02;101012.22;5065790;28;20044;-75
2022/06/03 10:05:26;;;;;;;3.25;1.92;;;;;;;17.97;55.21;101007.66;5089036;28;20051;-76
2022/06/03 10:08:03;;;;;;;3.40;1.73;;;;;;;17.97;55.31;101007.66;5090813;28;20036;-76
2022/06/03 10:13:14;;;;;;;4.45;2.28;;;;;;;17.74;55.87;101012.47;5085234;28;20071;-78
2022/06/03 10:15:56;;;;;;;2.05;1.85;;;;;;;17.65;55.81;101016.31;5069904;28;20083;-78
2022/06/03 10:18:30;;;;;;;4.28;1.75;;;;;;;17.73;56.30;101013.63;5073089;28;20036;-78
2022/06/03 10:21:19;;;;;;;4.22;1.92;;;;;;;17.77;55.73;101020.16;5073704;28;20049;-77
2022/06/03 10:24:04;;;;;;;2.65;1.98;;;;;;;17.70;55.78;101025.38;5069458;28;20576;-77
2022/06/03 10:26:49;;;;;;;2.67;1.65;;;;;;;17.59;55.90;101017.59;5073737;28;20043;-78
2022/06/03 10:29:17;;;;;;;2.28;1.95;;;;;;;17.52;56.03;101014.44;5082984;28;20036;-77
2022/06/03 10:31:54;;;;;;;3.30;1.83;;;;;;;17.54;55.88;101014.97;5084890;28;20044;-78
2022/06/03 10:34:24;;;;;;;2.45;1.92;;;;;;;17.61;55.91;101016.13;5075277;28;20040;-78
2022/06/03 10:36:53;;;;;;;1.75;1.45;;;;;;;17.75;55.05;101014.09;5055827;28;20042;-79
2022/06/03 10:39:20;;;;;;;1.70;1.60;;;;;;;17.95;55.01;101015.50;5087612;28;20046;-78
2022/06/03 10:41:48;;;;;;;2.17;1.50;;;;;;;18.07;54.44;101018.47;5084411;28;20056;-77
2022/06/03 10:44:17;;;;;;;2.05;1.85;;;;;;;18.10;54.72;101011.44;5083291;28;20046;-77
2022/06/03 10:47:13;;;;;;;4.15;1.70;;;;;;;18.15;54.94;101014.06;5084398;28;20043;-75
2022/06/03 10:49:57;;;;;;;1.73;1.63;;;;;;;18.03;54.65;101013.88;5075307;28;20035;-77
2022/06/03 11:01:21;;;;;;;2.55;2.00;;;;;;;17.95;54.71;101009.13;5089120;28;20042;-77
2022/06/03 11:03:52;;;;;;;6.38;1.90;;;;;;;17.99;54.53;101010.09;5091891;28;20497;-76
2022/06/03 11:06:22;;;;;;;2.83;2.00;;;;;;;17.97;54.40;101015.97;5087028;28;20089;-76
2022/06/03 11:08:48;;;;;;;2.33;2.13;;;;;;;18.01;54.21;101002.25;5091225;28;20499;-76
2022/06/03 11:11:14;;;;;;;1.92;1.80;;;;;;;17.98;54.38;101000.94;5092777;28;20062;-76
2022/06/03 11:13:40;;;;;;;1.90;1.70;;;;;;;18.05;53.97;101006.88;5091181;28;20052;-77
2022/06/03 11:16:21;;;;;;;2.53;1.67;;;;;;;18.07;53.43;101012.09;5077238;28;20059;-75
2022/06/03 11:18:46;;;;;;;1.83;1.73;;;;;;;18.03;53.95;101005.53;5082358;28;20055;-76
2022/06/03 11:21:29;;;;;;;2.78;2.10;;;;;;;17.94;54.03;101005.53;5082570;28;20036;-75
2022/06/03 11:23:57;;;;;;;2.50;2.30;;;;;;;17.90;54.80;101017.59;5070770;28;20396;-75
2022/06/03 11:26:37;;;;;;;2.50;2.30;;;;;;;17.88;54.08;101011.56;5077132;28;20040;-76
2022/06/03 11:29:27;;;;;;;3.40;2.30;;;;;;;17.92;54.21;101010.59;5087598;28;20051;-78
2022/06/03 11:31:52;;;;;;;3.42;2.08;;;;;;;17.91;54.08;101014.50;5087208;28;20085;-76
2022/06/03 11:34:33;;;;;;;2.10;1.90;;;;;;;18.03;53.58;101022.19;5087361;28;20136;-76
2022/06/03 11:37:16;;;;;;;3.13;2.83;;;;;;;18.08;53.80;101011.78;5081956;28;20032;-76
2022/06/03 11:39:46;;;;;;;3.65;2.08;;;;;;;18.11;53.48;101012.28;5090889;28;20068;-74
2022/06/03 11:42:31;;;;;;;2.53;2.33;;;;;;;18.25;53.47;101019.34;5069792;28;20032;-79
2022/06/03 11:45:16;;;;;;;2.53;2.08;;;;;;;18.27;53.40;101022.59;5072239;28;20075;-78
2022/06/03 11:48:05;;;;;;;3.53;1.92;;;;;;;18.29;53.49;101023.09;5071232;28;20039;-75
2022/06/03 11:50:31;;;;;;;2.63;2.42;;;;;;;18.21;53.38;101017.50;5088000;28;20036;-77
2022/06/03 11:52:57;;;;;;;2.55;2.28;;;;;;;18.18;53.33;101018.16;5084675;28;20086;-77
2022/06/03 11:55:26;;;;;;;2.67;2.28;;;;;;;18.15;53.49;101018.81;5077176;28;20041;-77
2022/06/03 11:58:11;;;;;;;3.25;2.10;;;;;;;18.19;53.05;101017.84;5077777;28;20048;-76
2022/06/03 12:00:48;;;;;;;3.53;2.30;;;;;;;18.14;53.59;101019.94;5083624;28;20814;-77
2022/06/03 12:03:56;;;;;;;2.47;2.28;;;;;;;18.03;54.00;101017.47;5090531;28;20139;-78
2022/06/03 12:06:35;;;;;;;3.58;2.17;;;;;;;17.95;55.00;101014.66;5048401;28;20048;-76
2022/06/03 12:09:17;;;;;;;2.80;2.22;;;;;;;18.02;54.55;101004.72;5040022;28;20044;-81
2022/06/03 12:14:56;;;;;;;3.50;2.22;;;;;;;18.10;53.89;101017.00;5073108;28;20667;-76
2022/06/03 12:17:31;;;;;;;4.65;2.03;;;;;;;18.12;54.30;101016.69;5081409;28;20495;-77
2022/06/03 12:19:58;;;;;;;4.03;2.38;;;;;;;18.09;54.18;101012.59;5099412;28;20503;-76
2022/06/03 12:22:29;;;;;;;3.45;2.28;;;;;;;18.06;54.39;101024.34;5089128;28;20172;-76
2022/06/03 12:24:57;;;;;;;3.17;2.22;;;;;;;18.05;54.28;101008.84;5071860;28;20102;-80
2022/06/03 12:27:39;;;;;;;2.42;2.15;;;;;;;18.03;54.03;101011.09;5076075;28;20078;-78
2022/06/03 12:30:14;;;;;;;2.90;2.22;;;;;;;17.98;53.88;101014.84;5074732;28;20033;-78
2022/06/03 12:32:52;;;;;;;3.35;2.58;;;;;;;17.97;54.36;101006.84;5077596;28;20062;-78
2022/06/03 12:35:42;;;;;;;2.53;2.13;;;;;;;17.98;54.31;101011.25;5080366;28;20067;-78
2022/06/03 12:38:43;;;;;;;2.60;2.17;;;;;;;17.97;54.80;101013.19;5091196;28;20043;-78
2022/06/03 12:41:09;;;;;;;3.58;2.40;;;;;;;17.91;54.72;101019.25;5088909;28;20060;-77
2022/06/03 12:43:46;;;;;;;2.97;2.13;;;;;;;17.80;54.59;101021.47;5078842;28;20064;-77
2022/06/03 12:46:38;;;;;;;3.20;2.33;;;;;;;17.70;54.96;101008.72;5071262;28;20048;-78
2022/06/03 12:49:38;;;;;;;3.38;2.10;;;;;;;17.74;54.86;101011.66;5070419;28;20036;-77
2022/06/03 12:52:08;;;;;;;2.47;2.10;;;;;;;17.76;55.10;101015.75;5074580;28;20590;-78
2022/06/03 12:54:50;;;;;;;2.08;1.88;;;;;;;17.73;54.95;101021.94;5074835;28;20489;-77